Capitol Logistics 32




PANC
Ted Stevens Anchorage International Airport
Anchorage, Alaska
RJAA
Tokyo-Narita International Airport
Tokyo,

Activity Log

Date Flight Route Aircraft Duration
09/23/2021 CPX32 NODLE NICHO NIKLL NIPPI R220 NOGAL NANAC SWAMP B744 7h 19m
09/14/2021 CPX32 NODLE R220 NEONN G349 MARCC G583 BISIV Y116 AWE ASIBE TME TOBBY Y10 LARCH Y302 JUGEM Y30 SWAMP SWAMSA B763 8h 08m
09/05/2021 CPX32 NODLE R220 NANZA R220 NIKLL R220 NANAC Y810 ARMOR Y810 KETAR Y811 MELON B763 7h 23m
04/16/2021 CPX32 NODLE R220 NANZA R220 NIKLL R220 NANAC Y810 ARMOR Y810 KETAR Y811 MELON B744 7h 00m
08/31/2020 CPX32 NODLE R220 NANZA R220 NIKLL R220 NANAC Y810 ARMOR Y810 KETAR Y811 MELON B763 7h 09m
12/02/2019 CPX32 NODLE R220 NANZA R220 NIKLL R220 NANAC Y810 ARMOR Y810 KETAR Y811 MELON B77L 8h 15m
09/13/2019 CPX32 NODLE R220 NANZA R220 NIKLL R220 NANAC Y810 ARMOR Y810 KETAR Y811 MELON B763 7h 54m
09/07/2019 CPX32 TED J501 VIDDA/N0455F380 J501 BET NEONN G349 KIVAK B932 BAMOK M152 RAPAK/N0456F400 M152 ODERI B932 TBE V4 OBE Y110 RACKO Z14 CAVES V22 MQE IXE SWAMP SWAMPN B763 7h 50m
07/10/2019 CPX32 NODLE R220 NANZA R220 NIKLL R220 NANAC Y810 ARMOR Y810 KETAR Y811 MELON B763 7h 04m
07/07/2019 CPX32 NODLE R220 NANZA R220 NIKLL R220 NANAC Y810 ARMOR Y810 KETAR Y811 MELON B763 7h 25m
06/17/2019 CPX32 NODLE R220 NANZA R220 NIKLL R220 NANAC Y810 ARMOR Y810 KETAR Y811 MELON B763 7h 38m
02/08/2019 CPX32 NODLE R220 NANDY/N0476F320 R220 NYMPH/K0878F330 R220 NUZAN/N0479F330 R220 NOGAL/N0486F340 R220 NUBDA/N0484F350 R220 NANAC/N0473F340 Y810 KETAR Y811 MELON ELGAR B763 7h 09m
01/23/2019 CPX32 NODLE R220 NANZA R220 NIKLL R220 NANAC Y810 ARMOR Y810 KETAR Y811 MELON B763 7h 23m
12/31/2018 CPX506 NODLE R220 NANZA R220 NIKLL R220 NANAC Y810 ARMOR Y810 KETAR Y811 MELON B763 7h 34m
12/21/2018 CPX505 NODLE R220 NANAC Y810 KETAR Y811 MELON ELGAR B763 7h 33m

Route Details

Aircraft Information
Group: Trans-Pacific Ops
Types: B744,B763,MD11
Route Data
Demand: L
Distance: 2980nm
Duration: 7h 15m
Recm'd Route: NODLE R220 NEONN G349 MARCC G583 BISIV Y116 AWE ASIBE TME TOBBY Y10 LARCH Y302 JUGEM Y30 SWAMP SWAMSA
Origin Wx: PANC 252346Z 00000KT 10SM SCT020 BKN036 M01/M03 A3008 RMK AO2 SNE2258 P0000 T10061033
Dest. Wx: RJAA 252330Z 34011KT 4500 VCSH BR FEW003 SCT005 BKN010 03/03 Q1016 TEMPO FEW002 BKN004 RMK 1ST003 4ST005 7ST010 A3002
Notes:

Financial History
Total Freight: 1,015,626lbs
Average Load: 67,708lbs/flt
Fuel Used: 1,357,707lbs
Avg. Fuel Used: 90,514lbs/flt
Fuel Expense: $1,261,563
Avg. Fuel Expense: $84,104
Avg. Fuel Cost: $0.99/lbs
Total Gross Income: $3,129,106
Pilot Pay: $3,095
Total Expenses: $361,582
Total Revenue: $1,479,611
Average Revenue: $208,607.04